createdAt,value
2019-03-04T00:00:49.640Z,76.52
2019-03-04T00:03:16.701Z,76.56
2019-03-04T00:05:43.780Z,76.57
2019-03-04T00:08:10.839Z,76.53
2019-03-04T00:10:37.899Z,76.54
2019-03-04T00:13:04.965Z,76.51
2019-03-04T00:15:32.024Z,76.57
2019-03-04T00:17:59.192Z,76.58
2019-03-04T00:20:26.265Z,76.67
2019-03-04T00:22:53.340Z,76.67
2019-03-04T00:25:20.402Z,76.64
2019-03-04T00:27:47.462Z,76.63
2019-03-04T00:30:14.531Z,76.60
2019-03-04T00:32:41.583Z,76.67
2019-03-04T00:35:08.667Z,76.68
2019-03-04T00:37:35.769Z,76.63
2019-03-04T00:40:03.285Z,76.60
2019-03-04T00:42:30.360Z,76.58
2019-03-04T00:44:57.416Z,76.59
2019-03-04T00:47:24.462Z,76.57
2019-03-04T00:49:51.534Z,76.67
2019-03-04T00:52:18.605Z,76.70
2019-03-04T00:54:45.667Z,76.72
2019-03-04T00:57:12.732Z,76.75
2019-03-04T00:59:39.791Z,76.77
2019-03-04T01:02:06.875Z,76.68
2019-03-04T01:04:33.933Z,76.66
2019-03-04T01:07:01.003Z,76.64
2019-03-04T01:09:28.055Z,76.61
2019-03-04T01:11:55.129Z,76.59
2019-03-04T01:14:22.182Z,76.62
2019-03-04T01:16:49.241Z,76.61
2019-03-04T01:19:17.994Z,76.69
2019-03-04T01:21:45.067Z,76.67
2019-03-04T01:24:12.138Z,76.78
2019-03-04T01:26:39.249Z,76.71
2019-03-04T01:29:06.318Z,76.67
2019-03-04T01:31:33.384Z,76.71
2019-03-04T01:34:00.439Z,76.72
2019-03-04T01:36:27.504Z,76.77
2019-03-04T01:38:54.595Z,76.82
2019-03-04T01:41:21.655Z,76.90
2019-03-04T01:43:48.722Z,76.91
2019-03-04T01:46:16.965Z,77.02
2019-03-04T01:48:44.113Z,77.09
2019-03-04T01:51:11.128Z,77.12
2019-03-04T01:53:38.195Z,77.01
2019-03-04T01:56:05.268Z,77.02
2019-03-04T01:58:32.331Z,76.95
2019-03-04T02:00:59.388Z,76.95
2019-03-04T02:03:26.454Z,76.96
2019-03-04T02:05:53.516Z,76.97
2019-03-04T02:08:20.579Z,77.16
2019-03-04T02:10:47.626Z,77.02
2019-03-04T02:13:14.696Z,77.09
2019-03-04T02:15:41.760Z,77.02
2019-03-04T02:18:08.824Z,77.12
2019-03-04T02:20:35.991Z,77.02
2019-03-04T02:23:03.053Z,77.03
2019-03-04T02:26:23.383Z,77.16
2019-03-04T02:28:50.458Z,77.10
2019-03-04T02:31:17.523Z,77.05
2019-03-04T02:33:44.605Z,77.12
2019-03-04T02:36:11.769Z,77.17
2019-03-04T02:38:38.874Z,77.13
2019-03-04T02:41:05.941Z,77.10
2019-03-04T02:43:33.004Z,77.04
2019-03-04T02:46:00.088Z,77.08
2019-03-04T02:48:27.138Z,77.08
2019-03-04T02:50:54.210Z,77.11
2019-03-04T02:53:21.289Z,77.08
2019-03-04T02:55:48.371Z,77.15
2019-03-04T02:58:15.446Z,77.17
2019-03-04T03:00:42.707Z,77.13
2019-03-04T03:03:09.872Z,77.21
2019-03-04T03:05:36.960Z,77.20
2019-03-04T03:08:04.033Z,77.19
2019-03-04T03:10:31.093Z,77.17
2019-03-04T03:12:58.167Z,77.11
2019-03-04T03:15:25.543Z,77.12
2019-03-04T03:17:52.609Z,77.13
2019-03-04T03:20:19.668Z,77.08
2019-03-04T03:22:46.727Z,77.20
2019-03-04T03:25:13.916Z,77.18
2019-03-04T03:27:41.026Z,77.18
2019-03-04T03:30:09.374Z,77.20
2019-03-04T03:32:36.441Z,77.14
2019-03-04T03:35:08.111Z,77.09
2019-03-04T03:37:33.052Z,77.12
2019-03-04T03:40:00.250Z,77.09
2019-03-04T03:42:27.276Z,77.11
2019-03-04T03:44:54.355Z,77.10
2019-03-04T03:47:21.407Z,77.10
2019-03-04T03:49:48.464Z,77.07
2019-03-04T03:52:15.544Z,77.11
2019-03-04T03:54:42.629Z,77.14
2019-03-04T03:57:09.740Z,77.15
2019-03-04T03:59:36.802Z,77.17
2019-03-04T04:02:03.974Z,77.14
2019-03-04T04:04:31.041Z,77.10
2019-03-04T04:06:58.115Z,77.04
2019-03-04T04:09:25.171Z,77.07
2019-03-04T04:11:52.248Z,77.10
2019-03-04T04:14:19.309Z,77.15
2019-03-04T04:16:46.381Z,77.20
2019-03-04T04:19:13.453Z,77.18
2019-03-04T04:21:40.524Z,77.18
2019-03-04T04:24:07.597Z,77.17
2019-03-04T04:26:34.648Z,77.17
2019-03-04T04:29:09.877Z,77.25
2019-03-04T04:31:37.024Z,77.20
2019-03-04T04:34:04.080Z,77.15
2019-03-04T04:36:39.244Z,77.15
2019-03-04T04:39:12.607Z,77.19
2019-03-04T04:41:43.205Z,77.19
2019-03-04T04:44:27.022Z,77.31
2019-03-04T04:46:55.308Z,77.41
2019-03-04T04:49:32.520Z,77.48
2019-03-04T04:51:59.580Z,77.21
2019-03-04T04:54:26.634Z,77.23
2019-03-04T04:56:53.704Z,77.48
2019-03-04T04:59:20.780Z,77.21
2019-03-04T05:01:47.838Z,77.15
2019-03-04T05:04:14.928Z,77.42
2019-03-04T05:06:42.048Z,77.87
2019-03-04T05:09:09.120Z,77.52
2019-03-04T05:11:36.222Z,77.54
2019-03-04T05:14:03.296Z,77.69
2019-03-04T05:16:30.353Z,78.02
2019-03-04T05:18:57.412Z,77.71
2019-03-04T05:21:24.470Z,77.99
2019-03-04T05:23:51.537Z,77.88
2019-03-04T05:26:19.500Z,77.75
2019-03-04T05:28:46.574Z,77.67
2019-03-04T05:31:13.683Z,77.87
2019-03-04T05:33:40.776Z,77.97
2019-03-04T05:36:07.882Z,77.94
2019-03-04T05:38:34.976Z,78.12
2019-03-04T05:41:02.036Z,77.59
2019-03-04T05:43:29.107Z,77.83
2019-03-04T05:45:56.174Z,77.53
2019-03-04T05:48:23.238Z,77.41
2019-03-04T05:50:50.310Z,77.63
2019-03-04T05:53:17.386Z,77.46
2019-03-04T05:55:44.455Z,77.36
2019-03-04T05:58:11.517Z,77.39
2019-03-04T06:00:40.590Z,77.37
2019-03-04T06:03:08.330Z,77.46
2019-03-04T06:05:35.406Z,77.45
2019-03-04T06:08:03.855Z,77.40
2019-03-04T06:10:30.920Z,77.47
2019-03-04T06:12:58.953Z,77.60
2019-03-04T06:15:26.230Z,77.73
2019-03-04T06:17:53.288Z,77.54
2019-03-04T06:20:20.397Z,77.67
2019-03-04T06:22:47.523Z,77.68
2019-03-04T06:25:19.952Z,77.48
2019-03-04T06:27:47.017Z,77.75
2019-03-04T06:30:19.050Z,77.90
2019-03-04T06:32:46.223Z,77.82
2019-03-04T06:35:13.374Z,77.48
2019-03-04T06:37:40.434Z,77.36
2019-03-04T06:40:09.110Z,77.34
2019-03-04T06:42:36.163Z,77.75
2019-03-04T06:45:04.430Z,77.58
2019-03-04T06:47:31.507Z,77.50
2019-03-04T06:49:58.551Z,77.41
2019-03-04T06:52:25.849Z,77.61
2019-03-04T06:55:21.386Z,77.81
2019-03-04T06:57:50.184Z,77.51
2019-03-04T07:01:14.299Z,77.30
2019-03-04T07:03:53.098Z,77.32
2019-03-04T07:06:20.160Z,77.25
2019-03-04T07:09:08.643Z,77.27
2019-03-04T07:11:36.605Z,77.46
2019-03-04T07:14:04.344Z,77.94
2019-03-04T07:16:32.262Z,77.56
2019-03-04T07:18:59.437Z,77.37
2019-03-04T07:21:26.507Z,77.30
2019-03-04T07:23:53.560Z,77.56
2019-03-04T07:26:20.616Z,77.71
2019-03-04T07:28:47.673Z,77.59
2019-03-04T07:31:14.722Z,77.45
2019-03-04T07:33:41.823Z,77.47
2019-03-04T07:36:08.892Z,77.35
2019-03-04T07:38:49.807Z,77.50
2019-03-04T07:41:16.868Z,77.47
2019-03-04T07:43:43.955Z,77.31
2019-03-04T07:46:11.101Z,77.47
2019-03-04T07:48:38.155Z,77.57
2019-03-04T07:51:10.746Z,77.81
2019-03-04T07:53:46.095Z,77.60
2019-03-04T07:56:06.800Z,77.67
2019-03-04T07:58:33.880Z,77.50
2019-03-04T08:01:00.935Z,77.90
2019-03-04T08:03:28.007Z,77.98
2019-03-04T08:05:55.075Z,77.93
2019-03-04T08:08:22.143Z,77.63
2019-03-04T08:11:25.955Z,77.49
2019-03-04T08:13:56.881Z,77.26
2019-03-04T08:16:23.974Z,77.32
2019-03-04T08:18:51.061Z,77.22
2019-03-04T08:21:18.124Z,77.72
2019-03-04T08:23:45.198Z,77.38
2019-03-04T08:26:12.647Z,77.38
2019-03-04T08:28:39.821Z,77.58
2019-03-04T08:31:07.495Z,77.54
2019-03-04T08:33:34.568Z,77.32
2019-03-04T08:36:01.622Z,77.37
2019-03-04T08:38:28.674Z,77.67
2019-03-04T08:40:55.733Z,77.46
2019-03-04T08:43:22.804Z,77.58
2019-03-04T08:45:49.971Z,77.72
2019-03-04T08:48:17.043Z,77.68
2019-03-04T08:50:44.185Z,78.05
2019-03-04T08:53:11.235Z,77.75
2019-03-04T08:55:38.287Z,77.79
2019-03-04T08:58:05.345Z,77.47
2019-03-04T09:00:33.111Z,77.39
2019-03-04T09:03:00.790Z,77.31
2019-03-04T09:05:27.855Z,77.46
2019-03-04T09:07:54.920Z,78.08
2019-03-04T09:10:24.131Z,78.64
2019-03-04T09:12:51.340Z,78.62
2019-03-04T09:15:18.501Z,78.27
2019-03-04T09:17:45.612Z,77.92
2019-03-04T09:20:13.099Z,78.43
2019-03-04T09:22:40.171Z,78.66
2019-03-04T09:25:10.777Z,78.13
2019-03-04T09:27:37.834Z,77.97
2019-03-04T09:30:06.340Z,78.05
2019-03-04T09:32:33.412Z,78.24
2019-03-04T09:35:00.478Z,78.18
2019-03-04T09:37:27.561Z,78.35
2019-03-04T09:39:54.624Z,78.04
2019-03-04T09:42:23.399Z,78.22
2019-03-04T09:44:50.491Z,78.44
2019-03-04T09:47:17.595Z,78.63
2019-03-04T09:49:44.717Z,78.61
2019-03-04T09:52:11.772Z,78.44
2019-03-04T09:54:38.840Z,78.08
2019-03-04T09:57:06.495Z,78.29
2019-03-04T09:59:33.553Z,78.02
2019-03-04T10:02:03.841Z,77.97
2019-03-04T10:05:00.044Z,77.79
2019-03-04T10:07:59.128Z,77.83
2019-03-04T10:11:07.933Z,77.53
2019-03-04T10:14:29.052Z,77.97
2019-03-04T10:17:35.895Z,78.11
2019-03-04T10:20:26.529Z,78.12
2019-03-04T10:23:18.297Z,77.71
2019-03-04T10:26:31.146Z,78.00
2019-03-04T10:29:16.153Z,77.88
2019-03-04T10:32:43.083Z,77.51
2019-03-04T10:35:38.152Z,77.50
2019-03-04T10:38:30.686Z,77.56
2019-03-04T10:41:19.828Z,77.61
2019-03-04T10:44:37.973Z,77.57
2019-03-04T10:47:05.304Z,77.74
2019-03-04T10:49:34.534Z,77.83
2019-03-04T10:52:01.604Z,78.18
2019-03-04T10:54:28.665Z,78.08
2019-03-04T10:56:55.747Z,78.30
2019-03-04T10:59:22.806Z,77.90
2019-03-04T11:01:50.221Z,77.73
2019-03-04T11:04:17.467Z,78.04
2019-03-04T11:06:44.531Z,77.88
2019-03-04T11:09:11.584Z,77.77
2019-03-04T11:11:39.051Z,77.59
2019-03-04T11:14:06.149Z,77.79
2019-03-04T11:16:33.210Z,77.86
2019-03-04T11:19:00.308Z,77.72
2019-03-04T11:21:27.370Z,77.71
2019-03-04T11:23:54.634Z,77.62
2019-03-04T11:26:21.739Z,77.81
2019-03-04T11:28:48.787Z,77.64
2019-03-04T11:31:15.901Z,77.61
2019-03-04T11:33:42.977Z,77.65
2019-03-04T11:36:10.048Z,77.51
2019-03-04T11:38:42.605Z,77.65
2019-03-04T11:41:11.871Z,77.62
2019-03-04T11:43:38.937Z,77.53
2019-03-04T11:46:05.999Z,77.50
2019-03-04T11:48:33.055Z,77.51
2019-03-04T11:51:00.121Z,77.48
2019-03-04T11:53:27.202Z,77.57
2019-03-04T11:55:54.277Z,77.49
2019-03-04T11:58:21.342Z,77.49
2019-03-04T12:00:59.770Z,77.47
2019-03-04T12:03:29.768Z,77.47
2019-03-04T12:05:56.838Z,77.59
2019-03-04T12:08:23.901Z,77.62
2019-03-04T12:10:51.044Z,77.58
2019-03-04T12:13:18.107Z,77.58
2019-03-04T12:15:45.190Z,77.52
2019-03-04T12:18:14.751Z,77.63
2019-03-04T12:20:44.356Z,77.55
2019-03-04T12:23:11.432Z,77.71
2019-03-04T12:25:38.535Z,77.57
2019-03-04T12:28:05.595Z,77.63
2019-03-04T12:30:32.682Z,77.82
2019-03-04T12:32:59.787Z,77.83
2019-03-04T12:35:26.862Z,77.89
2019-03-04T12:37:53.922Z,77.73
2019-03-04T12:40:21.438Z,77.61
2019-03-04T12:42:48.499Z,77.59
2019-03-04T12:45:15.779Z,77.60
2019-03-04T12:47:42.917Z,77.75
2019-03-04T12:50:15.737Z,77.64
2019-03-04T12:52:42.891Z,77.73
2019-03-04T12:55:10.132Z,77.85
2019-03-04T12:57:37.200Z,77.71
2019-03-04T13:00:06.428Z,77.77
2019-03-04T13:02:33.512Z,78.16
2019-03-04T13:05:01.671Z,78.09
2019-03-04T13:07:29.039Z,78.45
2019-03-04T13:09:56.099Z,78.06
2019-03-04T13:12:23.165Z,77.92
2019-03-04T13:14:50.244Z,77.85
2019-03-04T13:17:17.314Z,77.80
2019-03-04T13:19:44.367Z,77.85
2019-03-04T13:22:11.439Z,77.86
2019-03-04T13:24:38.504Z,77.99
2019-03-04T13:27:05.584Z,78.07
2019-03-04T13:29:32.660Z,77.98
2019-03-04T13:31:59.757Z,77.86
2019-03-04T13:34:26.846Z,77.90
2019-03-04T13:36:53.910Z,78.01
2019-03-04T13:39:20.988Z,78.09
2019-03-04T13:41:48.065Z,78.19
2019-03-04T13:44:15.129Z,78.20
2019-03-04T13:46:42.213Z,78.40
2019-03-04T13:49:09.296Z,78.32
2019-03-04T13:51:36.383Z,78.34
2019-03-04T13:54:03.586Z,78.36
2019-03-04T13:56:30.687Z,78.37
2019-03-04T13:58:57.777Z,78.40
2019-03-04T14:01:25.015Z,78.47
2019-03-04T14:03:52.106Z,78.45
2019-03-04T14:06:19.266Z,78.53
2019-03-04T14:08:46.300Z,78.42
2019-03-04T14:11:13.778Z,78.60
2019-03-04T14:13:40.985Z,79.13
2019-03-04T14:16:08.834Z,78.92
2019-03-04T14:18:36.190Z,78.70
2019-03-04T14:21:03.696Z,78.78
2019-03-04T14:23:32.246Z,78.90
2019-03-04T14:25:59.473Z,78.81
2019-03-04T14:28:28.386Z,78.76
2019-03-04T14:30:56.796Z,78.78
2019-03-04T14:33:24.232Z,78.86
2019-03-04T14:35:51.548Z,78.70
2019-03-04T14:38:18.751Z,78.67
2019-03-04T14:40:46.995Z,79.04
2019-03-04T14:43:14.477Z,78.94
2019-03-04T14:45:41.687Z,78.89
2019-03-04T14:48:08.864Z,79.00
2019-03-04T14:50:38.645Z,78.97
2019-03-04T14:53:05.876Z,79.02
2019-03-04T14:55:33.116Z,79.13
2019-03-04T14:58:02.000Z,79.28
2019-03-04T15:00:35.097Z,79.17
2019-03-04T15:03:02.347Z,79.19
2019-03-04T15:05:29.429Z,79.30
2019-03-04T15:07:56.521Z,79.27
2019-03-04T15:10:23.667Z,79.30
2019-03-04T15:12:50.767Z,79.30
2019-03-04T15:15:17.971Z,79.37
2019-03-04T15:17:45.052Z,79.40
2019-03-04T15:20:15.832Z,79.48
2019-03-04T15:22:42.904Z,79.55
2019-03-04T15:25:11.569Z,79.51
2019-03-04T15:27:38.626Z,79.49
2019-03-04T15:30:07.320Z,79.45
2019-03-04T15:32:34.400Z,79.54
2019-03-04T15:35:01.525Z,79.48
2019-03-04T15:37:28.612Z,79.53
2019-03-04T15:39:55.676Z,79.65
2019-03-04T15:42:22.777Z,79.68
2019-03-04T15:44:50.056Z,79.95
2019-03-04T15:47:17.110Z,79.74
2019-03-04T15:49:44.197Z,79.65
2019-03-04T15:52:11.364Z,79.92
2019-03-04T15:54:38.431Z,79.89
2019-03-04T15:57:07.024Z,79.84
2019-03-04T15:59:34.184Z,79.78
2019-03-04T16:02:12.465Z,79.76
2019-03-04T16:04:39.543Z,79.90
2019-03-04T16:07:08.558Z,79.87
2019-03-04T16:09:35.661Z,79.77
2019-03-04T16:12:02.800Z,79.76
2019-03-04T16:14:30.369Z,79.84
2019-03-04T16:16:57.435Z,79.83
2019-03-04T16:19:24.529Z,79.89
2019-03-04T16:21:51.608Z,79.86
2019-03-04T16:24:18.664Z,79.92
2019-03-04T16:26:45.775Z,79.91
2019-03-04T16:29:12.875Z,79.92
2019-03-04T16:31:39.947Z,80.05
2019-03-04T16:34:07.040Z,80.04
2019-03-04T16:36:34.164Z,80.20
2019-03-04T16:39:01.337Z,80.07
2019-03-04T16:41:28.380Z,80.26
2019-03-04T16:43:55.485Z,80.39
2019-03-04T16:46:22.559Z,80.13
2019-03-04T16:48:49.895Z,80.15
2019-03-04T16:51:17.006Z,80.17
2019-03-04T16:53:44.145Z,80.25
2019-03-04T16:56:11.415Z,80.36
2019-03-04T16:58:38.493Z,80.63
2019-03-04T17:01:05.555Z,80.40
2019-03-04T17:03:32.640Z,80.48
2019-03-04T17:05:59.703Z,80.42
2019-03-04T17:08:26.770Z,80.50
2019-03-04T17:10:53.830Z,80.46
2019-03-04T17:13:21.052Z,80.56
2019-03-04T17:15:48.126Z,80.53
2019-03-04T17:18:17.369Z,80.63
2019-03-04T17:20:44.255Z,80.71
2019-03-04T17:23:11.367Z,80.58
2019-03-04T17:25:38.550Z,80.63
2019-03-04T17:28:05.657Z,80.60
2019-03-04T17:30:33.067Z,80.66
2019-03-04T17:33:00.164Z,80.76
2019-03-04T17:35:27.339Z,80.77
2019-03-04T17:37:54.418Z,80.77
2019-03-04T17:40:21.773Z,80.83
2019-03-04T17:42:48.985Z,80.84
2019-03-04T17:45:16.374Z,80.89
2019-03-04T17:47:43.464Z,80.96
2019-03-04T17:50:12.742Z,80.93
2019-03-04T17:52:40.032Z,81.00
2019-03-04T17:55:08.629Z,81.00
2019-03-04T17:57:35.705Z,80.93
2019-03-04T18:00:03.331Z,80.86
2019-03-04T18:02:30.658Z,80.78
2019-03-04T18:04:57.732Z,80.78
2019-03-04T18:07:26.861Z,80.92
2019-03-04T18:09:54.018Z,80.88
2019-03-04T18:12:21.236Z,80.85
2019-03-04T18:14:48.643Z,80.80
2019-03-04T18:17:15.774Z,80.72
2019-03-04T18:19:42.831Z,80.78
2019-03-04T18:22:09.913Z,80.83
2019-03-04T18:24:37.475Z,81.02
2019-03-04T18:27:08.546Z,80.96
2019-03-04T18:30:11.472Z,80.97
2019-03-04T18:33:21.761Z,80.97
2019-03-04T18:36:13.683Z,81.12
2019-03-04T18:39:09.184Z,81.02
2019-03-04T18:42:24.421Z,81.06
2019-03-04T18:45:42.251Z,81.35
2019-03-04T18:48:41.191Z,81.02
2019-03-04T18:51:08.311Z,81.07
2019-03-04T18:53:35.388Z,81.13
2019-03-04T18:56:02.501Z,80.92
2019-03-04T18:58:29.578Z,81.02
2019-03-04T19:00:56.778Z,80.92
2019-03-04T19:03:23.895Z,81.03
2019-03-04T19:05:51.013Z,81.08
2019-03-04T19:08:18.084Z,81.08
2019-03-04T19:10:45.161Z,81.10
2019-03-04T19:13:12.320Z,81.14
2019-03-04T19:15:39.464Z,81.13
2019-03-04T19:18:06.576Z,81.08
2019-03-04T19:20:33.634Z,81.08
2019-03-04T19:23:00.789Z,81.10
2019-03-04T19:25:27.865Z,81.09
2019-03-04T19:27:55.191Z,80.96
2019-03-04T19:30:22.245Z,80.97
2019-03-04T19:32:49.359Z,81.00
2019-03-04T19:35:16.481Z,81.24
2019-03-04T19:37:44.094Z,81.16
2019-03-04T19:40:11.441Z,81.16
2019-03-04T19:42:38.541Z,81.29
2019-03-04T19:45:08.047Z,81.34
2019-03-04T19:47:35.176Z,81.31
2019-03-04T19:50:04.572Z,81.21
2019-03-04T19:52:31.662Z,81.23
2019-03-04T19:54:58.943Z,81.36
2019-03-04T19:57:26.247Z,81.31
2019-03-04T19:59:53.392Z,81.41
2019-03-04T20:02:20.468Z,81.35
2019-03-04T20:04:47.663Z,81.33
2019-03-04T20:07:14.963Z,81.32
2019-03-04T20:09:42.306Z,81.30
2019-03-04T20:12:09.593Z,81.40
2019-03-04T20:14:36.667Z,81.54
2019-03-04T20:17:03.855Z,81.43
2019-03-04T20:19:30.953Z,81.47
2019-03-04T20:21:58.040Z,81.63
2019-03-04T20:24:25.212Z,81.74
2019-03-04T20:26:52.365Z,81.38
2019-03-04T20:29:19.459Z,81.43
2019-03-04T20:31:46.820Z,81.53
2019-03-04T20:34:13.871Z,81.61
2019-03-04T20:36:40.952Z,81.56
2019-03-04T20:39:09.666Z,81.47
2019-03-04T20:41:37.729Z,81.43
2019-03-04T20:44:05.097Z,81.46
2019-03-04T20:46:32.156Z,81.76
2019-03-04T20:48:59.230Z,81.81
2019-03-04T20:51:26.297Z,81.63
2019-03-04T20:53:53.361Z,81.71
2019-03-04T20:56:20.437Z,81.57
2019-03-04T20:58:47.524Z,81.53
2019-03-04T21:01:15.474Z,81.70
2019-03-04T21:03:42.638Z,81.81
2019-03-04T21:06:09.866Z,81.75
2019-03-04T21:08:37.171Z,81.70
2019-03-04T21:11:04.270Z,82.13
2019-03-04T21:13:35.940Z,81.69
2019-03-04T21:16:00.432Z,81.61
2019-03-04T21:18:27.719Z,81.70
2019-03-04T21:20:57.810Z,81.72
2019-03-04T21:23:25.182Z,81.75
2019-03-04T21:26:01.527Z,81.71
2019-03-04T21:28:56.580Z,81.76
2019-03-04T21:32:07.520Z,81.66
2019-03-04T21:35:15.274Z,81.55
2019-03-04T21:37:44.729Z,81.30
2019-03-04T21:40:29.352Z,81.90
2019-03-04T21:43:04.204Z,81.89
2019-03-04T21:46:09.368Z,81.62
2019-03-04T21:48:40.801Z,81.56
2019-03-04T21:51:41.667Z,81.78
2019-03-04T21:54:09.001Z,81.71
2019-03-04T21:56:42.781Z,81.58
2019-03-04T21:59:09.962Z,81.73
2019-03-04T22:01:44.281Z,81.52
2019-03-04T22:04:11.696Z,81.51
2019-03-04T22:06:38.878Z,81.49
2019-03-04T22:09:07.115Z,81.65
2019-03-04T22:11:34.206Z,81.67
2019-03-04T22:14:01.277Z,81.65
2019-03-04T22:16:30.979Z,81.71
2019-03-04T22:18:57.768Z,81.73
2019-03-04T22:21:24.845Z,81.90
2019-03-04T22:23:51.952Z,81.73
2019-03-04T22:26:21.966Z,81.81
2019-03-04T22:28:49.135Z,81.82
2019-03-04T22:31:16.480Z,81.89
2019-03-04T22:33:43.728Z,81.90
2019-03-04T22:36:10.786Z,81.60
2019-03-04T22:38:37.838Z,81.52
2019-03-04T22:41:09.735Z,81.67
2019-03-04T22:43:36.940Z,81.72
2019-03-04T22:46:04.178Z,81.75
2019-03-04T22:48:31.363Z,81.93
2019-03-04T22:50:58.476Z,81.77
2019-03-04T22:53:25.775Z,81.84
2019-03-04T22:55:52.904Z,82.06
2019-03-04T22:58:28.118Z,82.08
2019-03-04T23:01:23.359Z,82.08
2019-03-04T23:03:50.674Z,82.14
2019-03-04T23:06:21.349Z,81.70
2019-03-04T23:08:48.439Z,81.74
2019-03-04T23:11:15.787Z,81.91
2019-03-04T23:13:49.585Z,81.80
2019-03-04T23:16:22.928Z,81.72
2019-03-04T23:18:49.992Z,81.91
2019-03-04T23:21:17.072Z,81.86
2019-03-04T23:23:44.154Z,82.21
2019-03-04T23:26:11.232Z,82.01
2019-03-04T23:28:38.354Z,81.90
2019-03-04T23:31:05.423Z,81.87
2019-03-04T23:33:32.515Z,82.00
2019-03-04T23:35:59.583Z,82.01
2019-03-04T23:38:26.661Z,82.19
2019-03-04T23:40:53.727Z,82.32
2019-03-04T23:43:21.248Z,82.15
2019-03-04T23:45:48.376Z,82.34
2019-03-04T23:48:15.463Z,82.09
2019-03-04T23:50:42.528Z,82.15
2019-03-04T23:53:09.597Z,82.03
2019-03-04T23:55:36.673Z,82.07
2019-03-04T23:58:03.768Z,82.08
